Ciudad Juárez, México

5:35 PM MDT en Septiembre 17, 2014 (GMT -0600)
Vista del Sol | Change Station
CLOSE
Current Station
Estación meteorológica personal
Location: El Paso, TX
Altura: 4010 ft
Estaciones meteorológicas cercanas

Alt 4010 ft 31.76 °N, 106.34 °W | Updated 3 minutes ago

Mostly Cloudy
Muy nublado
81.7 ° F
Sensación térmica 84 ° F
N
4.0
Viento Variable Viento desde ENE
Gusts 7.0 mph

Hoy
Alta -- | Baja -- ° F
--% Posibilidad de precipitaciones
Ayer
Alta -- | Baja -- ° F
Precip. -- pul
6:51 AM 7:08 PM
Creciente menguante, 32% visible
Presión 29.73 pul
Visibilidad 10.0 Millas
Nubes Baja 4500 ft
Nubes dispersas 12000 ft
Muy nublado 25000 ft
Índice de calor 84 ° F
Punto de rocío 66 ° F
Humedad 58%
Precipitaciones 0.01 pul
Espesor de la nieve No disponible.
UV 2 de una escala de 12
Polen No disponible.
Calidad del aire No disponible.
Flu Activity No disponible.
METAR KELP 172251Z 04011KT 10SM FEW045 SCT120 BKN250 28/17 A2994 RMK AO2 RAB2159E09 SLP067 CB DSNT S-NW P0000 T02780167

More Conditions Fewer Conditions

Presión 29.73 pul
Visibilidad 10.0 Millas
Nubes Baja 4500 ft
Nubes dispersas 12000 ft
Muy nublado 25000 ft
Índice de calor 84 ° F
Punto de rocío 66 ° F
Humedad 58%
Precipitaciones 0.01 pul
Espesor de la nieve No disponible.
UV 2 de una escala de 12
Polen No disponible.
Calidad del aire No disponible.
Flu Activity No disponible.
METAR KELP 172251Z 04011KT 10SM FEW045 SCT120 BKN250 28/17 A2994 RMK AO2 RAB2159E09 SLP067 CB DSNT S-NW P0000 T02780167

More Conditions Fewer Conditions

10-Day Weather Forecast

Almanac

Astronomía

Sep. 17, 2014 Salida Puesta
Hora real 6:51 AM MDT 7:08 PM MDT
Crepúsculo civil 6:26 AM MDT 7:33 PM MDT
Crepúsculo náutico 5:58 AM MDT 8:01 PM MDT
Crepúsculo astronómico 5:29 AM MDT 8:30 PM MDT
Luna 1:08 AM MDT 3:05 PM MDT
Horas de luz 13h 06m
Horas de luz
12h 17m
Tomorrow will be 1m 55s shorter.
Creciente menguante, 32% of the Moon is Illuminated
Hoy
Creciente menguante
Sep 24
Nueva
Oct 1
Cuarto creciente
Oct 8
Luna llena
Oct 15
Cuarto menguante

Extremos de hoy

Máximos del país Bajas del país

Community

WunderPhotos

Upload Photos

1,754,192 ¡fotos cargadas!

Nearby

Calidad del aire

Not available.

Grosos de nieve

Not available.

Actividad de terremotos

Ciudad Distance Mag. Tiempo y dato
No hay informes recientes de la actividad sísmica.
Magnitud mínima muestra es 2,5.

Temperaturas de aguas costeras

Lugar Temperatura
Sin partes meteorológicos de las estaciones

Estaciones meteorológicas cercanas